sensor_id;sensor_type;location;lat;lon;timestamp;temperature;humidity
3208;DHT22;1616;52.394;9.756;2023-06-10T00:02:00;19.90;1.00
3208;DHT22;1616;52.394;9.756;2023-06-10T00:04:27;19.80;1.00
3208;DHT22;1616;52.394;9.756;2023-06-10T00:06:53;19.80;1.00
3208;DHT22;1616;52.394;9.756;2023-06-10T00:09:19;19.80;1.00
3208;DHT22;1616;52.394;9.756;2023-06-10T00:11:47;19.80;1.00
3208;DHT22;1616;52.394;9.756;2023-06-10T00:14:13;19.70;1.00
3208;DHT22;1616;52.394;9.756;2023-06-10T00:16:39;19.70;1.00
3208;DHT22;1616;52.394;9.756;2023-06-10T00:19:05;19.70;1.00
3208;DHT22;1616;52.394;9.756;2023-06-10T00:21:32;19.70;1.00
3208;DHT22;1616;52.394;9.756;2023-06-10T00:24:11;19.60;1.00
3208;DHT22;1616;52.394;9.756;2023-06-10T00:26:41;19.70;1.00
3208;DHT22;1616;52.394;9.756;2023-06-10T00:29:07;19.60;1.00
3208;DHT22;1616;52.394;9.756;2023-06-10T00:31:37;19.60;1.00
3208;DHT22;1616;52.394;9.756;2023-06-10T00:34:03;19.60;1.00
3208;DHT22;1616;52.394;9.756;2023-06-10T00:36:29;19.50;1.00
3208;DHT22;1616;52.394;9.756;2023-06-10T00:38:56;19.30;1.00
3208;DHT22;1616;52.394;9.756;2023-06-10T00:41:22;19.30;1.00
3208;DHT22;1616;52.394;9.756;2023-06-10T00:43:48;19.30;1.00
3208;DHT22;1616;52.394;9.756;2023-06-10T00:46:14;19.30;1.00
3208;DHT22;1616;52.394;9.756;2023-06-10T00:48:42;19.20;1.00
3208;DHT22;1616;52.394;9.756;2023-06-10T00:51:08;19.20;1.00
3208;DHT22;1616;52.394;9.756;2023-06-10T00:53:40;19.10;1.00
3208;DHT22;1616;52.394;9.756;2023-06-10T00:56:06;19.10;1.00
3208;DHT22;1616;52.394;9.756;2023-06-10T00:58:32;19.00;1.00
3208;DHT22;1616;52.394;9.756;2023-06-10T01:00:59;18.90;1.00
3208;DHT22;1616;52.394;9.756;2023-06-10T01:03:24;18.80;1.00
3208;DHT22;1616;52.394;9.756;2023-06-10T01:09:28;18.60;1.00
3208;DHT22;1616;52.394;9.756;2023-06-10T01:12:34;18.40;1.00
3208;DHT22;1616;52.394;9.756;2023-06-10T01:15:03;18.30;1.00
3208;DHT22;1616;52.394;9.756;2023-06-10T01:17:29;18.30;1.00
3208;DHT22;1616;52.394;9.756;2023-06-10T01:19:56;18.20;1.00
3208;DHT22;1616;52.394;9.756;2023-06-10T01:22:26;18.20;1.00
3208;DHT22;1616;52.394;9.756;2023-06-10T01:24:58;18.10;1.00
3208;DHT22;1616;52.394;9.756;2023-06-10T01:27:28;18.00;1.00
3208;DHT22;1616;52.394;9.756;2023-06-10T01:29:59;18.00;1.00
3208;DHT22;1616;52.394;9.756;2023-06-10T01:32:41;18.10;1.00
3208;DHT22;1616;52.394;9.756;2023-06-10T01:35:08;18.10;1.00
3208;DHT22;1616;52.394;9.756;2023-06-10T01:37:35;18.10;1.00
3208;DHT22;1616;52.394;9.756;2023-06-10T01:40:05;18.10;1.00
3208;DHT22;1616;52.394;9.756;2023-06-10T01:42:32;18.10;1.00
3208;DHT22;1616;52.394;9.756;2023-06-10T01:44:58;18.10;1.00
3208;DHT22;1616;52.394;9.756;2023-06-10T01:47:24;18.10;1.00
3208;DHT22;1616;52.394;9.756;2023-06-10T01:49:49;18.20;1.00
3208;DHT22;1616;52.394;9.756;2023-06-10T01:52:15;18.20;1.00
3208;DHT22;1616;52.394;9.756;2023-06-10T01:54:41;18.30;1.00
3208;DHT22;1616;52.394;9.756;2023-06-10T01:57:07;18.30;1.00
3208;DHT22;1616;52.394;9.756;2023-06-10T01:59:32;18.30;1.00
3208;DHT22;1616;52.394;9.756;2023-06-10T02:02:04;18.20;1.00
3208;DHT22;1616;52.394;9.756;2023-06-10T02:04:31;18.20;1.00
3208;DHT22;1616;52.394;9.756;2023-06-10T02:06:56;18.20;1.00
3208;DHT22;1616;52.394;9.756;2023-06-10T02:09:22;18.20;1.00
3208;DHT22;1616;52.394;9.756;2023-06-10T02:11:48;18.10;1.00
3208;DHT22;1616;52.394;9.756;2023-06-10T02:14:14;18.00;1.00
3208;DHT22;1616;52.394;9.756;2023-06-10T02:16:40;17.90;1.00
3208;DHT22;1616;52.394;9.756;2023-06-10T02:19:06;17.80;1.00
3208;DHT22;1616;52.394;9.756;2023-06-10T02:21:32;17.80;1.00
3208;DHT22;1616;52.394;9.756;2023-06-10T02:24:00;17.70;1.00
3208;DHT22;1616;52.394;9.756;2023-06-10T02:26:26;17.60;1.00
3208;DHT22;1616;52.394;9.756;2023-06-10T02:28:52;17.60;1.00
3208;DHT22;1616;52.394;9.756;2023-06-10T02:31:18;17.60;1.00
3208;DHT22;1616;52.394;9.756;2023-06-10T02:33:44;17.60;1.00
3208;DHT22;1616;52.394;9.756;2023-06-10T02:36:10;17.60;1.00
3208;DHT22;1616;52.394;9.756;2023-06-10T02:38:41;17.50;1.00
3208;DHT22;1616;52.394;9.756;2023-06-10T02:41:07;17.50;1.00
3208;DHT22;1616;52.394;9.756;2023-06-10T02:43:32;17.60;1.00
3208;DHT22;1616;52.394;9.756;2023-06-10T02:45:58;17.50;1.00
3208;DHT22;1616;52.394;9.756;2023-06-10T02:48:24;17.50;1.00
3208;DHT22;1616;52.394;9.756;2023-06-10T02:50:50;17.30;1.00
3208;DHT22;1616;52.394;9.756;2023-06-10T02:53:16;17.30;1.00
3208;DHT22;1616;52.394;9.756;2023-06-10T02:55:42;17.30;1.00
3208;DHT22;1616;52.394;9.756;2023-06-10T02:58:08;17.30;1.00
3208;DHT22;1616;52.394;9.756;2023-06-10T03:00:33;17.30;1.00
3208;DHT22;1616;52.394;9.756;2023-06-10T03:02:59;17.30;1.00
3208;DHT22;1616;52.394;9.756;2023-06-10T03:05:31;17.30;1.00
3208;DHT22;1616;52.394;9.756;2023-06-10T03:07:56;17.20;1.00
3208;DHT22;1616;52.394;9.756;2023-06-10T03:10:22;17.20;1.00
3208;DHT22;1616;52.394;9.756;2023-06-10T03:12:47;17.20;1.00
3208;DHT22;1616;52.394;9.756;2023-06-10T03:15:13;17.20;1.00
3208;DHT22;1616;52.394;9.756;2023-06-10T03:17:40;17.20;1.00
3208;DHT22;1616;52.394;9.756;2023-06-10T03:20:06;17.10;1.00
3208;DHT22;1616;52.394;9.756;2023-06-10T03:22:33;17.20;1.00
3208;DHT22;1616;52.394;9.756;2023-06-10T03:24:58;17.10;1.00
3208;DHT22;1616;52.394;9.756;2023-06-10T03:27:25;17.10;1.00
3208;DHT22;1616;52.394;9.756;2023-06-10T03:29:51;17.20;1.00
3208;DHT22;1616;52.394;9.756;2023-06-10T03:32:17;17.30;1.00
3208;DHT22;1616;52.394;9.756;2023-06-10T03:34:43;17.40;1.00
3208;DHT22;1616;52.394;9.756;2023-06-10T03:37:10;17.50;1.00
3208;DHT22;1616;52.394;9.756;2023-06-10T03:39:36;17.60;1.00
3208;DHT22;1616;52.394;9.756;2023-06-10T03:42:01;17.80;1.00
3208;DHT22;1616;52.394;9.756;2023-06-10T03:44:27;17.90;1.00
3208;DHT22;1616;52.394;9.756;2023-06-10T03:46:54;18.10;1.00
3208;DHT22;1616;52.394;9.756;2023-06-10T03:49:20;18.40;1.00
3208;DHT22;1616;52.394;9.756;2023-06-10T03:51:46;18.60;1.00
3208;DHT22;1616;52.394;9.756;2023-06-10T03:54:11;18.70;1.00
3208;DHT22;1616;52.394;9.756;2023-06-10T03:56:37;19.00;1.00
3208;DHT22;1616;52.394;9.756;2023-06-10T03:59:02;18.90;1.00
3208;DHT22;1616;52.394;9.756;2023-06-10T04:01:28;18.80;1.00
3208;DHT22;1616;52.394;9.756;2023-06-10T04:03:54;18.50;1.00
3208;DHT22;1616;52.394;9.756;2023-06-10T04:06:20;18.40;1.00
3208;DHT22;1616;52.394;9.756;2023-06-10T04:08:48;18.20;1.00
3208;DHT22;1616;52.394;9.756;2023-06-10T04:11:14;18.10;1.00
3208;DHT22;1616;52.394;9.756;2023-06-10T04:13:39;17.90;1.00
3208;DHT22;1616;52.394;9.756;2023-06-10T04:16:05;17.80;1.00
3208;DHT22;1616;52.394;9.756;2023-06-10T04:18:31;17.80;1.00
3208;DHT22;1616;52.394;9.756;2023-06-10T04:20:56;17.90;1.00
3208;DHT22;1616;52.394;9.756;2023-06-10T04:23:22;17.90;1.00
3208;DHT22;1616;52.394;9.756;2023-06-10T04:25:48;17.90;1.00
3208;DHT22;1616;52.394;9.756;2023-06-10T04:28:14;18.00;1.00
3208;DHT22;1616;52.394;9.756;2023-06-10T04:30:39;17.90;1.00
3208;DHT22;1616;52.394;9.756;2023-06-10T04:33:05;17.80;1.00
3208;DHT22;1616;52.394;9.756;2023-06-10T04:35:32;17.80;1.00
3208;DHT22;1616;52.394;9.756;2023-06-10T04:37:58;17.70;1.00
3208;DHT22;1616;52.394;9.756;2023-06-10T04:40:23;17.60;1.00
3208;DHT22;1616;52.394;9.756;2023-06-10T04:42:49;17.60;1.00
3208;DHT22;1616;52.394;9.756;2023-06-10T04:45:15;17.60;1.00
3208;DHT22;1616;52.394;9.756;2023-06-10T04:47:40;17.80;1.00
3208;DHT22;1616;52.394;9.756;2023-06-10T04:50:06;18.10;1.00
3208;DHT22;1616;52.394;9.756;2023-06-10T04:52:32;18.70;1.00
3208;DHT22;1616;52.394;9.756;2023-06-10T04:54:59;19.10;1.00
3208;DHT22;1616;52.394;9.756;2023-06-10T04:57:25;19.50;1.00
3208;DHT22;1616;52.394;9.756;2023-06-10T04:59:51;19.90;1.00
3208;DHT22;1616;52.394;9.756;2023-06-10T05:02:17;20.00;1.00
3208;DHT22;1616;52.394;9.756;2023-06-10T05:04:43;19.90;1.00
3208;DHT22;1616;52.394;9.756;2023-06-10T05:07:09;19.80;1.00
3208;DHT22;1616;52.394;9.756;2023-06-10T05:09:35;19.60;1.00
3208;DHT22;1616;52.394;9.756;2023-06-10T05:12:01;19.50;1.00
3208;DHT22;1616;52.394;9.756;2023-06-10T05:14:27;19.40;1.00
3208;DHT22;1616;52.394;9.756;2023-06-10T05:16:53;19.40;1.00
3208;DHT22;1616;52.394;9.756;2023-06-10T05:19:18;19.40;1.00
3208;DHT22;1616;52.394;9.756;2023-06-10T05:21:45;19.50;1.00
3208;DHT22;1616;52.394;9.756;2023-06-10T05:24:11;19.60;1.00
3208;DHT22;1616;52.394;9.756;2023-06-10T05:26:36;20.00;1.00
3208;DHT22;1616;52.394;9.756;2023-06-10T05:29:04;20.30;1.00
3208;DHT22;1616;52.394;9.756;2023-06-10T05:31:30;20.70;1.00
3208;DHT22;1616;52.394;9.756;2023-06-10T05:33:56;21.00;1.00
3208;DHT22;1616;52.394;9.756;2023-06-10T05:36:21;21.00;1.00
3208;DHT22;1616;52.394;9.756;2023-06-10T05:38:47;21.10;1.00
3208;DHT22;1616;52.394;9.756;2023-06-10T05:41:13;21.60;1.00
3208;DHT22;1616;52.394;9.756;2023-06-10T05:43:38;21.90;1.00
3208;DHT22;1616;52.394;9.756;2023-06-10T05:46:04;22.30;1.00
3208;DHT22;1616;52.394;9.756;2023-06-10T05:48:30;22.60;1.00
3208;DHT22;1616;52.394;9.756;2023-06-10T05:50:55;22.70;1.00
3208;DHT22;1616;52.394;9.756;2023-06-10T05:53:21;23.00;1.00
3208;DHT22;1616;52.394;9.756;2023-06-10T05:55:46;23.50;1.00
3208;DHT22;1616;52.394;9.756;2023-06-10T05:58:14;23.90;1.00
3208;DHT22;1616;52.394;9.756;2023-06-10T06:00:40;24.40;1.00
3208;DHT22;1616;52.394;9.756;2023-06-10T06:03:07;24.90;1.00
3208;DHT22;1616;52.394;9.756;2023-06-10T06:05:36;25.40;1.00
3208;DHT22;1616;52.394;9.756;2023-06-10T06:08:04;25.90;1.00
3208;DHT22;1616;52.394;9.756;2023-06-10T06:10:30;26.30;1.00
3208;DHT22;1616;52.394;9.756;2023-06-10T06:12:56;26.90;1.00
3208;DHT22;1616;52.394;9.756;2023-06-10T06:15:22;27.50;1.00
3208;DHT22;1616;52.394;9.756;2023-06-10T06:17:48;28.00;1.00
3208;DHT22;1616;52.394;9.756;2023-06-10T06:20:13;28.40;1.00
3208;DHT22;1616;52.394;9.756;2023-06-10T06:22:39;28.70;1.00
3208;DHT22;1616;52.394;9.756;2023-06-10T06:25:05;29.10;1.00
3208;DHT22;1616;52.394;9.756;2023-06-10T06:27:31;29.40;1.00
3208;DHT22;1616;52.394;9.756;2023-06-10T06:29:57;29.50;1.00
3208;DHT22;1616;52.394;9.756;2023-06-10T06:32:22;29.60;1.00
3208;DHT22;1616;52.394;9.756;2023-06-10T06:34:50;29.70;1.00
3208;DHT22;1616;52.394;9.756;2023-06-10T06:37:21;29.70;1.00
3208;DHT22;1616;52.394;9.756;2023-06-10T06:39:47;29.80;1.00
3208;DHT22;1616;52.394;9.756;2023-06-10T06:42:13;29.90;1.00
3208;DHT22;1616;52.394;9.756;2023-06-10T06:44:39;29.90;1.00
3208;DHT22;1616;52.394;9.756;2023-06-10T06:47:05;30.10;1.00
3208;DHT22;1616;52.394;9.756;2023-06-10T06:49:30;30.20;1.00
3208;DHT22;1616;52.394;9.756;2023-06-10T06:51:56;30.20;1.00
3208;DHT22;1616;52.394;9.756;2023-06-10T06:54:22;30.10;1.00
3208;DHT22;1616;52.394;9.756;2023-06-10T06:56:51;30.10;1.00
3208;DHT22;1616;52.394;9.756;2023-06-10T06:59:17;30.30;1.00
3208;DHT22;1616;52.394;9.756;2023-06-10T07:01:45;30.40;1.00
3208;DHT22;1616;52.394;9.756;2023-06-10T07:04:11;30.50;1.00
3208;DHT22;1616;52.394;9.756;2023-06-10T07:06:37;30.50;1.00
3208;DHT22;1616;52.394;9.756;2023-06-10T07:09:04;30.60;1.00
3208;DHT22;1616;52.394;9.756;2023-06-10T07:11:30;30.70;1.00
3208;DHT22;1616;52.394;9.756;2023-06-10T07:13:56;30.80;1.00
3208;DHT22;1616;52.394;9.756;2023-06-10T07:16:23;30.90;1.00
3208;DHT22;1616;52.394;9.756;2023-06-10T07:18:48;30.90;1.00
3208;DHT22;1616;52.394;9.756;2023-06-10T07:21:14;30.90;1.00
3208;DHT22;1616;52.394;9.756;2023-06-10T07:23:43;31.00;1.00
3208;DHT22;1616;52.394;9.756;2023-06-10T07:26:10;31.10;1.00
3208;DHT22;1616;52.394;9.756;2023-06-10T07:28:37;31.30;1.00
3208;DHT22;1616;52.394;9.756;2023-06-10T07:31:03;31.40;1.00
3208;DHT22;1616;52.394;9.756;2023-06-10T07:33:29;31.40;1.00
3208;DHT22;1616;52.394;9.756;2023-06-10T07:35:55;31.60;1.00
3208;DHT22;1616;52.394;9.756;2023-06-10T07:38:20;31.70;1.00
3208;DHT22;1616;52.394;9.756;2023-06-10T07:40:46;31.80;1.00
3208;DHT22;1616;52.394;9.756;2023-06-10T07:43:12;31.70;1.00
3208;DHT22;1616;52.394;9.756;2023-06-10T07:45:41;31.70;1.00
3208;DHT22;1616;52.394;9.756;2023-06-10T07:48:07;31.80;1.00
3208;DHT22;1616;52.394;9.756;2023-06-10T07:50:33;31.80;1.00
3208;DHT22;1616;52.394;9.756;2023-06-10T07:52:59;32.00;1.00
3208;DHT22;1616;52.394;9.756;2023-06-10T07:55:24;32.00;1.00
3208;DHT22;1616;52.394;9.756;2023-06-10T07:57:51;31.90;1.00
3208;DHT22;1616;52.394;9.756;2023-06-10T08:00:17;31.90;1.00
3208;DHT22;1616;52.394;9.756;2023-06-10T08:02:43;31.90;1.00
3208;DHT22;1616;52.394;9.756;2023-06-10T08:05:09;31.90;1.00
3208;DHT22;1616;52.394;9.756;2023-06-10T08:07:35;31.90;1.00
3208;DHT22;1616;52.394;9.756;2023-06-10T08:10:01;31.90;1.00
3208;DHT22;1616;52.394;9.756;2023-06-10T08:12:27;31.80;1.00
3208;DHT22;1616;52.394;9.756;2023-06-10T08:14:52;32.00;1.00
3208;DHT22;1616;52.394;9.756;2023-06-10T08:17:19;32.10;1.00
3208;DHT22;1616;52.394;9.756;2023-06-10T08:19:44;32.10;1.00
3208;DHT22;1616;52.394;9.756;2023-06-10T08:22:10;32.30;1.00
3208;DHT22;1616;52.394;9.756;2023-06-10T08:24:36;32.50;1.00
3208;DHT22;1616;52.394;9.756;2023-06-10T08:27:01;32.60;1.00
3208;DHT22;1616;52.394;9.756;2023-06-10T08:29:27;32.70;1.00
3208;DHT22;1616;52.394;9.756;2023-06-10T08:31:53;32.60;1.00
3208;DHT22;1616;52.394;9.756;2023-06-10T08:34:18;32.60;1.00
3208;DHT22;1616;52.394;9.756;2023-06-10T08:36:44;32.70;1.00
3208;DHT22;1616;52.394;9.756;2023-06-10T08:39:10;32.80;1.00
3208;DHT22;1616;52.394;9.756;2023-06-10T08:41:42;33.10;1.00
3208;DHT22;1616;52.394;9.756;2023-06-10T08:44:16;33.20;1.00
3208;DHT22;1616;52.394;9.756;2023-06-10T08:46:45;33.40;1.00
3208;DHT22;1616;52.394;9.756;2023-06-10T08:49:17;33.40;1.00
3208;DHT22;1616;52.394;9.756;2023-06-10T08:51:43;33.60;1.00
3208;DHT22;1616;52.394;9.756;2023-06-10T08:54:17;33.80;1.00
3208;DHT22;1616;52.394;9.756;2023-06-10T08:56:49;33.90;1.00
3208;DHT22;1616;52.394;9.756;2023-06-10T08:59:16;34.10;1.00
3208;DHT22;1616;52.394;9.756;2023-06-10T09:01:43;34.20;1.00
3208;DHT22;1616;52.394;9.756;2023-06-10T09:04:10;34.40;1.00
3208;DHT22;1616;52.394;9.756;2023-06-10T09:06:37;34.60;1.00
3208;DHT22;1616;52.394;9.756;2023-06-10T09:09:05;34.80;1.00
3208;DHT22;1616;52.394;9.756;2023-06-10T09:11:32;35.00;1.00
3208;DHT22;1616;52.394;9.756;2023-06-10T09:13:58;35.10;1.00
3208;DHT22;1616;52.394;9.756;2023-06-10T09:16:24;35.30;1.00
3208;DHT22;1616;52.394;9.756;2023-06-10T09:18:51;35.60;1.00
3208;DHT22;1616;52.394;9.756;2023-06-10T09:21:22;35.90;1.00
3208;DHT22;1616;52.394;9.756;2023-06-10T09:23:48;36.00;1.00
3208;DHT22;1616;52.394;9.756;2023-06-10T09:26:13;36.10;1.00
3208;DHT22;1616;52.394;9.756;2023-06-10T09:28:43;36.20;1.00
3208;DHT22;1616;52.394;9.756;2023-06-10T09:31:09;36.10;1.00
3208;DHT22;1616;52.394;9.756;2023-06-10T09:33:39;36.10;1.00
3208;DHT22;1616;52.394;9.756;2023-06-10T09:36:05;36.00;1.00
3208;DHT22;1616;52.394;9.756;2023-06-10T09:38:32;36.00;1.00
3208;DHT22;1616;52.394;9.756;2023-06-10T09:40:58;36.00;1.00
3208;DHT22;1616;52.394;9.756;2023-06-10T09:46:04;35.90;1.00
3208;DHT22;1616;52.394;9.756;2023-06-10T09:48:34;35.90;1.00
3208;DHT22;1616;52.394;9.756;2023-06-10T09:50:59;36.00;1.00
3208;DHT22;1616;52.394;9.756;2023-06-10T09:53:25;36.40;1.00
3208;DHT22;1616;52.394;9.756;2023-06-10T09:55:52;36.40;1.00
3208;DHT22;1616;52.394;9.756;2023-06-10T09:58:17;36.40;1.00
3208;DHT22;1616;52.394;9.756;2023-06-10T10:00:52;36.40;1.00
3208;DHT22;1616;52.394;9.756;2023-06-10T10:03:24;36.60;1.00
3208;DHT22;1616;52.394;9.756;2023-06-10T10:05:58;36.70;1.00
3208;DHT22;1616;52.394;9.756;2023-06-10T10:08:24;36.90;1.00
3208;DHT22;1616;52.394;9.756;2023-06-10T10:10:50;37.10;1.00
3208;DHT22;1616;52.394;9.756;2023-06-10T10:13:16;37.40;1.00
3208;DHT22;1616;52.394;9.756;2023-06-10T10:15:43;37.50;1.00
3208;DHT22;1616;52.394;9.756;2023-06-10T10:18:11;37.50;1.00
3208;DHT22;1616;52.394;9.756;2023-06-10T10:20:46;37.60;1.00
3208;DHT22;1616;52.394;9.756;2023-06-10T10:23:14;37.70;1.00
3208;DHT22;1616;52.394;9.756;2023-06-10T10:25:49;38.00;1.00
3208;DHT22;1616;52.394;9.756;2023-06-10T10:28:20;38.20;1.00
3208;DHT22;1616;52.394;9.756;2023-06-10T10:30:51;38.40;1.00
3208;DHT22;1616;52.394;9.756;2023-06-10T10:33:33;38.40;1.00
3208;DHT22;1616;52.394;9.756;2023-06-10T10:36:00;38.30;1.00
3208;DHT22;1616;52.394;9.756;2023-06-10T10:38:28;38.30;1.00
3208;DHT22;1616;52.394;9.756;2023-06-10T10:40:54;38.10;1.00
3208;DHT22;1616;52.394;9.756;2023-06-10T10:43:25;38.00;1.00
3208;DHT22;1616;52.394;9.756;2023-06-10T10:46:11;38.10;1.00
3208;DHT22;1616;52.394;9.756;2023-06-10T10:48:38;38.20;1.00
3208;DHT22;1616;52.394;9.756;2023-06-10T10:51:04;38.20;1.00
3208;DHT22;1616;52.394;9.756;2023-06-10T10:53:30;38.30;1.00
3208;DHT22;1616;52.394;9.756;2023-06-10T10:58:31;38.70;1.00
3208;DHT22;1616;52.394;9.756;2023-06-10T11:00:57;38.50;1.00
3208;DHT22;1616;52.394;9.756;2023-06-10T11:03:28;38.30;1.00
3208;DHT22;1616;52.394;9.756;2023-06-10T11:05:57;38.20;1.00
3208;DHT22;1616;52.394;9.756;2023-06-10T11:10:58;38.10;1.00
3208;DHT22;1616;52.394;9.756;2023-06-10T11:13:25;38.10;1.00
3208;DHT22;1616;52.394;9.756;2023-06-10T11:15:52;38.10;1.00
3208;DHT22;1616;52.394;9.756;2023-06-10T11:18:22;38.20;1.00
3208;DHT22;1616;52.394;9.756;2023-06-10T11:26:08;38.10;1.00
3208;DHT22;1616;52.394;9.756;2023-06-10T11:28:34;38.30;1.00
3208;DHT22;1616;52.394;9.756;2023-06-10T11:31:00;38.40;1.00
3208;DHT22;1616;52.394;9.756;2023-06-10T11:33:26;38.40;1.00
3208;DHT22;1616;52.394;9.756;2023-06-10T11:35:51;38.40;1.00
3208;DHT22;1616;52.394;9.756;2023-06-10T11:38:18;38.60;1.00
3208;DHT22;1616;52.394;9.756;2023-06-10T11:40:53;38.70;1.00
3208;DHT22;1616;52.394;9.756;2023-06-10T11:43:19;39.10;1.00
3208;DHT22;1616;52.394;9.756;2023-06-10T11:45:45;39.40;1.00
3208;DHT22;1616;52.394;9.756;2023-06-10T11:48:12;39.60;1.00
3208;DHT22;1616;52.394;9.756;2023-06-10T11:50:38;39.60;1.00
3208;DHT22;1616;52.394;9.756;2023-06-10T11:53:04;39.60;1.00
3208;DHT22;1616;52.394;9.756;2023-06-10T11:55:46;39.60;1.00
3208;DHT22;1616;52.394;9.756;2023-06-10T11:58:20;39.70;1.00
3208;DHT22;1616;52.394;9.756;2023-06-10T12:00:46;39.70;1.00
3208;DHT22;1616;52.394;9.756;2023-06-10T12:03:13;39.70;1.00
3208;DHT22;1616;52.394;9.756;2023-06-10T12:05:38;39.80;1.00
3208;DHT22;1616;52.394;9.756;2023-06-10T12:08:11;39.80;1.00
3208;DHT22;1616;52.394;9.756;2023-06-10T12:10:41;39.70;1.00
3208;DHT22;1616;52.394;9.756;2023-06-10T12:13:09;39.50;1.00
3208;DHT22;1616;52.394;9.756;2023-06-10T12:15:34;39.30;1.00
3208;DHT22;1616;52.394;9.756;2023-06-10T12:18:01;39.40;1.00
3208;DHT22;1616;52.394;9.756;2023-06-10T12:20:29;39.30;1.00
3208;DHT22;1616;52.394;9.756;2023-06-10T12:22:55;38.90;1.00
3208;DHT22;1616;52.394;9.756;2023-06-10T12:25:28;38.60;1.00
3208;DHT22;1616;52.394;9.756;2023-06-10T12:27:56;38.30;1.00
3208;DHT22;1616;52.394;9.756;2023-06-10T12:30:24;38.30;1.00
3208;DHT22;1616;52.394;9.756;2023-06-10T12:32:51;38.40;1.00
3208;DHT22;1616;52.394;9.756;2023-06-10T12:35:22;38.50;1.00
3208;DHT22;1616;52.394;9.756;2023-06-10T12:38:00;38.30;1.00
3208;DHT22;1616;52.394;9.756;2023-06-10T12:40:31;38.10;1.00
3208;DHT22;1616;52.394;9.756;2023-06-10T12:42:57;37.90;1.00
3208;DHT22;1616;52.394;9.756;2023-06-10T12:45:33;37.60;1.00
3208;DHT22;1616;52.394;9.756;2023-06-10T12:48:19;37.30;1.00
3208;DHT22;1616;52.394;9.756;2023-06-10T12:50:52;36.80;1.00
3208;DHT22;1616;52.394;9.756;2023-06-10T12:53:18;36.40;1.00
3208;DHT22;1616;52.394;9.756;2023-06-10T12:55:45;36.10;1.00
3208;DHT22;1616;52.394;9.756;2023-06-10T12:58:11;35.90;1.00
3208;DHT22;1616;52.394;9.756;2023-06-10T13:00:37;35.80;1.00
3208;DHT22;1616;52.394;9.756;2023-06-10T13:03:04;35.90;1.00
3208;DHT22;1616;52.394;9.756;2023-06-10T13:05:31;36.00;1.00
3208;DHT22;1616;52.394;9.756;2023-06-10T13:07:59;35.70;1.00
3208;DHT22;1616;52.394;9.756;2023-06-10T13:10:24;35.70;1.00
3208;DHT22;1616;52.394;9.756;2023-06-10T13:12:51;35.50;1.00
3208;DHT22;1616;52.394;9.756;2023-06-10T13:15:17;35.30;1.00
3208;DHT22;1616;52.394;9.756;2023-06-10T13:17:44;35.10;1.00
3208;DHT22;1616;52.394;9.756;2023-06-10T13:20:11;34.90;1.00
3208;DHT22;1616;52.394;9.756;2023-06-10T13:22:37;34.80;1.00
3208;DHT22;1616;52.394;9.756;2023-06-10T13:25:03;34.70;1.00
3208;DHT22;1616;52.394;9.756;2023-06-10T13:27:30;34.60;1.00
3208;DHT22;1616;52.394;9.756;2023-06-10T13:29:55;34.40;1.00
3208;DHT22;1616;52.394;9.756;2023-06-10T13:32:21;34.30;1.00
3208;DHT22;1616;52.394;9.756;2023-06-10T13:34:48;34.00;1.00
3208;DHT22;1616;52.394;9.756;2023-06-10T13:37:15;33.70;1.00
3208;DHT22;1616;52.394;9.756;2023-06-10T13:39:43;33.40;1.00
3208;DHT22;1616;52.394;9.756;2023-06-10T13:42:08;33.10;1.00
3208;DHT22;1616;52.394;9.756;2023-06-10T13:44:34;32.80;1.00
3208;DHT22;1616;52.394;9.756;2023-06-10T13:47:04;32.40;1.00
3208;DHT22;1616;52.394;9.756;2023-06-10T13:49:30;32.20;1.00
3208;DHT22;1616;52.394;9.756;2023-06-10T13:51:56;31.90;1.00
3208;DHT22;1616;52.394;9.756;2023-06-10T13:54:22;31.80;1.00
3208;DHT22;1616;52.394;9.756;2023-06-10T13:56:48;31.60;1.00
3208;DHT22;1616;52.394;9.756;2023-06-10T13:59:14;31.50;1.00
3208;DHT22;1616;52.394;9.756;2023-06-10T14:01:39;31.30;1.00
3208;DHT22;1616;52.394;9.756;2023-06-10T14:04:06;31.30;1.00
3208;DHT22;1616;52.394;9.756;2023-06-10T14:06:33;31.20;1.00
3208;DHT22;1616;52.394;9.756;2023-06-10T14:08:59;31.20;1.00
3208;DHT22;1616;52.394;9.756;2023-06-10T14:11:25;31.10;1.00
3208;DHT22;1616;52.394;9.756;2023-06-10T14:13:51;31.10;1.00
3208;DHT22;1616;52.394;9.756;2023-06-10T14:16:17;31.00;1.00
3208;DHT22;1616;52.394;9.756;2023-06-10T14:18:42;31.00;1.00
3208;DHT22;1616;52.394;9.756;2023-06-10T14:21:08;31.00;1.00
3208;DHT22;1616;52.394;9.756;2023-06-10T14:23:33;30.80;1.00
3208;DHT22;1616;52.394;9.756;2023-06-10T14:25:59;30.80;1.00
3208;DHT22;1616;52.394;9.756;2023-06-10T14:28:25;30.80;1.00
3208;DHT22;1616;52.394;9.756;2023-06-10T14:30:53;30.70;1.00
3208;DHT22;1616;52.394;9.756;2023-06-10T14:33:18;30.70;1.00
3208;DHT22;1616;52.394;9.756;2023-06-10T14:35:44;30.70;1.00
3208;DHT22;1616;52.394;9.756;2023-06-10T14:38:10;30.70;1.00
3208;DHT22;1616;52.394;9.756;2023-06-10T14:40:36;30.70;1.00
3208;DHT22;1616;52.394;9.756;2023-06-10T14:43:01;30.70;1.00
3208;DHT22;1616;52.394;9.756;2023-06-10T14:45:29;30.60;1.00
3208;DHT22;1616;52.394;9.756;2023-06-10T14:47:55;30.60;1.00
3208;DHT22;1616;52.394;9.756;2023-06-10T14:50:21;30.50;1.00
3208;DHT22;1616;52.394;9.756;2023-06-10T14:52:46;30.50;1.00
3208;DHT22;1616;52.394;9.756;2023-06-10T14:55:12;30.60;1.00
3208;DHT22;1616;52.394;9.756;2023-06-10T14:57:37;30.60;1.00
3208;DHT22;1616;52.394;9.756;2023-06-10T15:00:03;30.70;1.00
3208;DHT22;1616;52.394;9.756;2023-06-10T15:02:29;30.70;1.00
3208;DHT22;1616;52.394;9.756;2023-06-10T15:04:55;30.70;1.00
3208;DHT22;1616;52.394;9.756;2023-06-10T15:07:20;30.60;1.00
3208;DHT22;1616;52.394;9.756;2023-06-10T15:09:46;30.60;1.00
3208;DHT22;1616;52.394;9.756;2023-06-10T15:12:12;30.60;1.00
3208;DHT22;1616;52.394;9.756;2023-06-10T15:14:37;30.60;1.00
3208;DHT22;1616;52.394;9.756;2023-06-10T15:17:03;30.60;1.00
3208;DHT22;1616;52.394;9.756;2023-06-10T15:19:29;30.60;1.00
3208;DHT22;1616;52.394;9.756;2023-06-10T15:21:55;30.60;1.00
3208;DHT22;1616;52.394;9.756;2023-06-10T15:24:20;30.60;1.00
3208;DHT22;1616;52.394;9.756;2023-06-10T15:26:46;30.60;1.00
3208;DHT22;1616;52.394;9.756;2023-06-10T15:29:11;30.50;1.00
3208;DHT22;1616;52.394;9.756;2023-06-10T15:31:38;30.50;1.00
3208;DHT22;1616;52.394;9.756;2023-06-10T15:34:03;30.40;1.00
3208;DHT22;1616;52.394;9.756;2023-06-10T15:36:30;30.50;1.00
3208;DHT22;1616;52.394;9.756;2023-06-10T15:39:04;30.50;1.00
3208;DHT22;1616;52.394;9.756;2023-06-10T15:41:32;30.50;1.00
3208;DHT22;1616;52.394;9.756;2023-06-10T15:43:59;30.50;1.00
3208;DHT22;1616;52.394;9.756;2023-06-10T15:46:29;30.60;1.00
3208;DHT22;1616;52.394;9.756;2023-06-10T15:48:55;30.60;1.00
3208;DHT22;1616;52.394;9.756;2023-06-10T15:51:22;30.60;1.00
3208;DHT22;1616;52.394;9.756;2023-06-10T15:53:48;30.50;1.00
3208;DHT22;1616;52.394;9.756;2023-06-10T15:56:15;30.40;1.00
3208;DHT22;1616;52.394;9.756;2023-06-10T15:58:41;30.40;1.00
3208;DHT22;1616;52.394;9.756;2023-06-10T16:01:06;30.50;1.00
3208;DHT22;1616;52.394;9.756;2023-06-10T16:03:34;30.50;1.00
3208;DHT22;1616;52.394;9.756;2023-06-10T16:06:00;30.50;1.00
3208;DHT22;1616;52.394;9.756;2023-06-10T16:08:25;30.50;1.00
3208;DHT22;1616;52.394;9.756;2023-06-10T16:10:51;30.60;1.00
3208;DHT22;1616;52.394;9.756;2023-06-10T16:13:17;30.60;1.00
3208;DHT22;1616;52.394;9.756;2023-06-10T16:15:44;30.50;1.00
3208;DHT22;1616;52.394;9.756;2023-06-10T16:18:10;30.50;1.00
3208;DHT22;1616;52.394;9.756;2023-06-10T16:20:36;30.50;1.00
3208;DHT22;1616;52.394;9.756;2023-06-10T16:23:02;30.50;1.00
3208;DHT22;1616;52.394;9.756;2023-06-10T16:25:28;30.50;1.00
3208;DHT22;1616;52.394;9.756;2023-06-10T16:27:54;30.60;1.00
3208;DHT22;1616;52.394;9.756;2023-06-10T16:30:20;30.60;1.00
3208;DHT22;1616;52.394;9.756;2023-06-10T16:32:46;30.70;1.00